createdAt,value
2023-05-24T00:04:36.385Z,47.00
2023-05-24T00:09:41.253Z,48.25
2023-05-24T00:14:46.392Z,36.25
2023-05-24T00:19:51.271Z,48.00
2023-05-24T00:24:56.036Z,43.75
2023-05-24T00:30:00.979Z,44.50
2023-05-24T00:35:06.030Z,45.50
2023-05-24T00:40:11.540Z,45.00
2023-05-24T00:45:16.610Z,40.50
2023-05-24T00:50:22.070Z,47.00
2023-05-24T00:55:28.265Z,43.75
2023-05-24T01:00:34.260Z,36.00
2023-05-24T01:05:39.290Z,38.25
2023-05-24T01:10:56.910Z,44.00
2023-05-24T01:16:03.310Z,47.00
2023-05-24T01:21:28.440Z,44.00
2023-05-24T01:26:33.399Z,40.25
2023-05-24T01:31:39.178Z,41.75
2023-05-24T01:36:44.235Z,37.25
2023-05-24T01:42:07.895Z,46.50
2023-05-24T01:47:41.331Z,40.50
2023-05-24T01:52:47.492Z,35.50
2023-05-24T01:57:53.170Z,39.75
2023-05-24T02:02:59.378Z,38.50
2023-05-24T02:08:04.338Z,37.00
2023-05-24T02:13:09.752Z,40.00
2023-05-24T02:18:15.638Z,39.75
2023-05-24T02:23:20.423Z,38.00
2023-05-24T02:28:25.483Z,34.00
2023-05-24T02:33:31.289Z,43.25
2023-05-24T02:38:36.323Z,41.00
2023-05-24T02:43:41.447Z,42.00
2023-05-24T02:48:46.497Z,43.25
2023-05-24T02:53:51.466Z,40.50
2023-05-24T02:58:57.018Z,41.75
2023-05-24T03:04:02.442Z,43.50
2023-05-24T03:09:08.363Z,38.75
2023-05-24T03:14:13.300Z,35.75
2023-05-24T03:19:20.320Z,40.75
2023-05-24T03:24:27.543Z,42.25
2023-05-24T03:29:33.013Z,35.00
2023-05-24T03:34:38.172Z,43.25
2023-05-24T03:39:43.634Z,40.25
2023-05-24T03:45:09.136Z,34.00
2023-05-24T03:50:15.736Z,45.25
2023-05-24T03:55:20.580Z,34.50
2023-05-24T04:00:26.496Z,41.25
2023-05-24T04:05:31.608Z,40.50
2023-05-24T04:10:36.886Z,36.75
2023-05-24T04:15:42.091Z,38.75
2023-05-24T04:20:47.971Z,38.50
2023-05-24T04:25:52.492Z,38.75
2023-05-24T04:30:59.063Z,35.00
2023-05-24T04:36:03.789Z,35.50
2023-05-24T04:41:08.486Z,38.75
2023-05-24T04:46:13.088Z,36.50
2023-05-24T04:51:17.994Z,33.00
2023-05-24T04:56:22.769Z,40.25
2023-05-24T05:01:27.978Z,36.25
2023-05-24T05:06:33.745Z,33.50
2023-05-24T05:11:39.003Z,42.50
2023-05-24T05:16:44.404Z,35.50
2023-05-24T05:21:49.625Z,36.75
2023-05-24T05:26:54.672Z,41.00
2023-05-24T05:31:59.732Z,37.00
2023-05-24T05:37:04.746Z,41.25
2023-05-24T05:42:09.840Z,39.25
2023-05-24T05:47:14.990Z,36.00
2023-05-24T05:52:20.009Z,41.50
2023-05-24T05:57:25.670Z,35.75
2023-05-24T06:02:30.548Z,33.00
2023-05-24T06:07:37.091Z,35.00
2023-05-24T06:12:42.070Z,38.00
2023-05-24T06:17:49.406Z,32.75
2023-05-24T06:22:54.481Z,32.50
2023-05-24T06:27:59.660Z,36.00
2023-05-24T06:33:05.657Z,31.25
2023-05-24T06:38:10.762Z,33.00
2023-05-24T06:43:15.729Z,37.00
2023-05-24T06:48:20.790Z,32.75
2023-05-24T06:53:25.800Z,36.75
2023-05-24T06:58:30.860Z,31.50
2023-05-24T07:03:35.643Z,32.00
2023-05-24T07:08:40.630Z,37.75
2023-05-24T07:13:45.659Z,36.50
2023-05-24T07:18:50.568Z,39.25
2023-05-24T07:23:55.643Z,40.00
2023-05-24T07:29:00.423Z,37.00
2023-05-24T07:34:05.599Z,41.25
2023-05-24T07:39:17.050Z,33.00
2023-05-24T07:44:22.022Z,34.25
2023-05-24T07:49:26.860Z,38.25
2023-05-24T07:54:31.922Z,33.00
2023-05-24T07:59:36.521Z,34.75
2023-05-24T08:04:44.695Z,41.75
2023-05-24T08:09:49.659Z,35.00
2023-05-24T08:14:55.241Z,30.25
2023-05-24T08:20:00.351Z,36.50
2023-05-24T08:25:05.488Z,32.50
2023-05-24T08:30:10.654Z,36.50
2023-05-24T08:35:20.138Z,44.00
2023-05-24T08:40:27.860Z,36.75
2023-05-24T08:45:33.211Z,34.75
2023-05-24T08:50:37.985Z,35.50
2023-05-24T08:55:44.605Z,37.00
2023-05-24T09:00:49.840Z,40.25
2023-05-24T09:05:55.244Z,34.50
2023-05-24T09:11:01.534Z,44.25
2023-05-24T09:16:07.874Z,41.25
2023-05-24T09:21:13.534Z,38.25
2023-05-24T09:26:19.455Z,34.25
2023-05-24T09:31:34.080Z,36.00
2023-05-24T09:36:43.280Z,38.25
2023-05-24T09:41:57.032Z,45.50
2023-05-24T09:47:08.287Z,47.75
2023-05-24T09:52:16.153Z,45.25
2023-05-24T09:57:24.209Z,48.25
2023-05-24T10:02:35.485Z,44.25
2023-05-24T10:07:46.438Z,43.25
2023-05-24T10:12:52.444Z,45.00
2023-05-24T10:17:58.254Z,47.50
2023-05-24T10:23:05.740Z,48.50
2023-05-24T10:28:12.224Z,47.50
2023-05-24T10:33:18.266Z,58.00
2023-05-24T10:38:25.125Z,51.00
2023-05-24T10:43:29.901Z,54.75
2023-05-24T10:48:37.608Z,53.00
2023-05-24T10:53:42.808Z,54.50
2023-05-24T10:59:00.573Z,54.50
2023-05-24T11:04:19.051Z,59.25
2023-05-24T11:09:24.299Z,52.50
2023-05-24T11:14:32.754Z,60.25
2023-05-24T11:19:57.865Z,53.00
2023-05-24T11:25:07.352Z,56.50
2023-05-24T11:30:14.123Z,50.25
2023-05-24T11:35:20.595Z,50.25
2023-05-24T11:40:26.507Z,49.50
2023-05-24T11:45:31.503Z,58.50
2023-05-24T11:50:48.740Z,58.00
2023-05-24T11:55:56.007Z,63.75
2023-05-24T12:01:01.182Z,63.00
2023-05-24T12:06:06.347Z,60.75
2023-05-24T12:11:11.518Z,60.25
2023-05-24T12:16:17.870Z,61.25
2023-05-24T12:21:23.039Z,59.50
2023-05-24T12:26:28.300Z,61.25
2023-05-24T12:31:33.514Z,52.50
2023-05-24T12:36:38.439Z,58.50
2023-05-24T12:41:43.131Z,54.50
2023-05-24T12:46:48.029Z,63.50
2023-05-24T12:51:53.492Z,67.25
2023-05-24T12:56:58.503Z,72.75
2023-05-24T13:02:03.398Z,66.00
2023-05-24T13:07:08.090Z,66.50
2023-05-24T13:12:14.944Z,61.25
2023-05-24T13:17:19.965Z,70.00
2023-05-24T13:22:24.600Z,69.50
2023-05-24T13:27:29.323Z,72.00
2023-05-24T13:32:34.217Z,75.75
2023-05-24T13:37:39.317Z,78.75
2023-05-24T13:42:46.060Z,77.00
2023-05-24T13:47:50.179Z,77.50
2023-05-24T13:52:54.508Z,79.75
2023-05-24T13:57:59.119Z,81.25
2023-05-24T14:03:05.469Z,79.25
2023-05-24T14:08:10.416Z,83.25
2023-05-24T14:13:34.221Z,80.25
2023-05-24T14:18:39.668Z,90.25
2023-05-24T14:23:44.618Z,86.75
2023-05-24T14:28:49.261Z,91.75
2023-05-24T14:33:54.247Z,82.75
2023-05-24T14:38:58.798Z,82.75
2023-05-24T14:44:03.184Z,96.25
2023-05-24T14:49:07.801Z,88.00
2023-05-24T14:54:13.285Z,79.75
2023-05-24T14:59:17.778Z,97.33
2023-05-24T15:04:22.654Z,99.67
2023-05-24T15:09:28.344Z,101.33
2023-05-24T15:14:32.882Z,91.67
2023-05-24T15:19:37.536Z,101.33
2023-05-24T15:24:42.238Z,95.67
2023-05-24T15:29:47.007Z,98.33
2023-05-24T15:34:52.562Z,102.00
2023-05-24T15:39:57.174Z,107.67
2023-05-24T15:45:01.572Z,105.67
2023-05-24T15:50:06.017Z,112.33
2023-05-24T15:55:10.870Z,102.67
2023-05-24T16:00:15.373Z,113.33
2023-05-24T16:05:21.210Z,115.67
2023-05-24T16:10:25.923Z,112.00
2023-05-24T16:15:31.517Z,114.67
2023-05-24T16:20:36.856Z,126.00
2023-05-24T16:25:41.498Z,106.67
2023-05-24T16:30:46.475Z,116.00
2023-05-24T16:35:56.847Z,122.00
2023-05-24T16:41:01.324Z,127.00
2023-05-24T16:46:05.902Z,124.33
2023-05-24T16:51:10.435Z,126.33
2023-05-24T16:56:14.806Z,130.33
2023-05-24T17:01:19.249Z,134.00
2023-05-24T17:06:24.012Z,131.33
2023-05-24T17:11:28.654Z,134.50
2023-05-24T17:16:33.201Z,126.00
2023-05-24T17:21:38.219Z,125.25
2023-05-24T17:26:43.899Z,122.00
2023-05-24T17:31:48.798Z,141.25
2023-05-24T17:36:53.617Z,136.00
2023-05-24T17:41:58.003Z,133.50
2023-05-24T17:47:03.455Z,136.25
2023-05-24T17:52:08.127Z,153.25
2023-05-24T17:57:12.759Z,146.75
2023-05-24T18:02:17.489Z,141.50
2023-05-24T18:07:21.918Z,149.50
2023-05-24T18:12:26.866Z,149.50
2023-05-24T18:17:31.638Z,144.25
2023-05-24T18:22:35.946Z,159.75
2023-05-24T18:27:40.273Z,153.50
2023-05-24T18:33:02.858Z,147.50
2023-05-24T18:38:09.457Z,152.25
2023-05-24T18:43:14.449Z,146.25
2023-05-24T18:48:19.149Z,146.75
2023-05-24T18:53:23.693Z,141.50
2023-05-24T18:58:28.143Z,139.25
2023-05-24T19:03:32.668Z,151.25
2023-05-24T19:08:37.452Z,139.00
2023-05-24T19:13:42.165Z,140.00
2023-05-24T19:18:47.110Z,129.25
2023-05-24T19:23:51.722Z,125.75
2023-05-24T19:28:56.230Z,129.00
2023-05-24T19:34:01.279Z,115.67
2023-05-24T19:39:06.133Z,116.00
2023-05-24T19:44:10.623Z,118.33
2023-05-24T19:49:14.932Z,118.00
2023-05-24T19:54:19.373Z,121.67
2023-05-24T19:59:23.762Z,119.67
2023-05-24T20:04:28.257Z,108.00
2023-05-24T20:09:32.941Z,105.67
2023-05-24T20:14:37.417Z,114.33
2023-05-24T20:19:41.773Z,108.00
2023-05-24T20:24:46.211Z,107.33
2023-05-24T20:29:50.504Z,98.00
2023-05-24T20:34:55.014Z,100.00
2023-05-24T20:39:59.668Z,100.33
2023-05-24T20:45:04.932Z,98.00
2023-05-24T20:50:09.446Z,103.33
2023-05-24T20:55:13.831Z,95.33
2023-05-24T21:00:18.256Z,98.00
2023-05-24T21:05:22.670Z,95.00
2023-05-24T21:10:29.274Z,90.67
2023-05-24T21:15:33.757Z,91.67
2023-05-24T21:20:38.020Z,85.00
2023-05-24T21:25:42.639Z,86.67
2023-05-24T21:30:47.284Z,84.67
2023-05-24T21:35:51.796Z,84.33
2023-05-24T21:40:56.201Z,82.67
2023-05-24T21:46:00.600Z,82.50
2023-05-24T21:51:05.283Z,83.33
2023-05-24T21:56:09.713Z,81.67
2023-05-24T22:01:14.215Z,90.00
2023-05-24T22:06:18.488Z,87.00
2023-05-24T22:11:23.106Z,81.50
2023-05-24T22:16:27.479Z,77.00
2023-05-24T22:21:34.663Z,75.00
2023-05-24T22:26:39.538Z,76.50
2023-05-24T22:31:43.696Z,75.50
2023-05-24T22:36:48.032Z,76.25
2023-05-24T22:41:53.620Z,79.75
2023-05-24T22:46:58.228Z,75.75
2023-05-24T22:52:02.600Z,74.00
2023-05-24T22:57:07.572Z,76.00
2023-05-24T23:02:12.444Z,74.00
2023-05-24T23:07:17.056Z,75.00
2023-05-24T23:12:22.428Z,70.50
2023-05-24T23:17:27.791Z,71.50
2023-05-24T23:22:32.281Z,67.00
2023-05-24T23:27:36.852Z,68.75
2023-05-24T23:32:41.197Z,69.75
2023-05-24T23:37:45.754Z,65.25
2023-05-24T23:42:50.929Z,63.75
2023-05-24T23:47:55.587Z,65.75
2023-05-24T23:52:59.942Z,63.00
2023-05-24T23:58:04.947Z,59.50
